createdAt,value
2024-02-04T00:01:58.952Z,97725.13
2024-02-04T00:04:25.578Z,97728.50
2024-02-04T00:06:52.263Z,97720.66
2024-02-04T00:09:19.888Z,97722.09
2024-02-04T00:11:46.528Z,97721.34
2024-02-04T00:14:13.581Z,97718.97
2024-02-04T00:16:40.084Z,97718.66
2024-02-04T00:19:06.724Z,97721.44
2024-02-04T00:21:33.343Z,97720.19
2024-02-04T00:24:00.643Z,97718.13
2024-02-04T00:26:27.437Z,97709.94
2024-02-04T00:28:53.896Z,97718.38
2024-02-04T00:31:20.349Z,97718.13
2024-02-04T00:33:47.317Z,97728.75
2024-02-04T00:36:13.835Z,97712.56
2024-02-04T00:38:40.277Z,97711.09
2024-02-04T00:41:06.949Z,97711.19
2024-02-04T00:43:33.439Z,97725.47
2024-02-04T00:46:01.455Z,97710.91
2024-02-04T00:48:28.218Z,97713.38
2024-02-04T00:50:54.861Z,97718.81
2024-02-04T00:53:21.422Z,97712.31
2024-02-04T00:55:48.051Z,97724.97
2024-02-04T00:58:14.569Z,97726.00
2024-02-04T01:00:41.136Z,97722.53
2024-02-04T01:03:07.929Z,97719.84
2024-02-04T01:05:34.503Z,97732.81
2024-02-04T01:08:01.803Z,97723.44
2024-02-04T01:10:28.314Z,97722.91
2024-02-04T01:12:54.881Z,97710.38
2024-02-04T01:15:21.576Z,97709.72
2024-02-04T01:17:48.060Z,97710.63
2024-02-04T01:20:14.678Z,97702.38
2024-02-04T01:22:41.115Z,97707.44
2024-02-04T01:25:07.960Z,97703.06
2024-02-04T01:27:34.503Z,97702.81
2024-02-04T01:30:01.005Z,97705.66
2024-02-04T01:32:27.511Z,97714.69
2024-02-04T01:34:54.154Z,97700.69
2024-02-04T01:37:20.781Z,97700.16
2024-02-04T01:39:47.295Z,97703.28
2024-02-04T01:42:13.849Z,97706.31
2024-02-04T01:44:40.315Z,97694.88
2024-02-04T01:47:06.781Z,97700.09
2024-02-04T01:49:33.364Z,97693.78
2024-02-04T01:52:00.020Z,97687.66
2024-02-04T01:54:26.644Z,97679.41
2024-02-04T01:56:53.281Z,97683.56
2024-02-04T01:59:20.084Z,97688.84
2024-02-04T02:01:46.554Z,97675.03
2024-02-04T02:04:13.292Z,97685.03
2024-02-04T02:06:43.266Z,97678.22
2024-02-04T02:09:12.031Z,97678.41
2024-02-04T02:11:43.464Z,97676.22
2024-02-04T02:14:12.242Z,97670.56
2024-02-04T02:16:38.690Z,97667.00
2024-02-04T02:19:09.315Z,97666.56
2024-02-04T02:21:58.084Z,97669.00
2024-02-04T02:24:24.799Z,97670.03
2024-02-04T02:26:51.841Z,97666.16
2024-02-04T02:29:18.322Z,97657.94
2024-02-04T02:31:48.528Z,97656.97
2024-02-04T02:34:27.152Z,97654.22
2024-02-04T02:37:05.606Z,97660.22
2024-02-04T02:39:32.575Z,97663.28
2024-02-04T02:42:00.803Z,97658.59
2024-02-04T02:44:27.770Z,97654.78
2024-02-04T02:46:55.484Z,97653.44
2024-02-04T02:49:22.125Z,97645.13
2024-02-04T02:51:48.669Z,97655.81
2024-02-04T02:54:15.169Z,97648.81
2024-02-04T02:56:41.645Z,97644.34
2024-02-04T02:59:09.271Z,97643.47
2024-02-04T03:01:35.843Z,97635.91
2024-02-04T03:04:02.450Z,97638.47
2024-02-04T03:06:28.985Z,97644.84
2024-02-04T03:08:55.489Z,97643.44
2024-02-04T03:11:21.975Z,97635.97
2024-02-04T03:13:48.429Z,97634.13
2024-02-04T03:16:14.984Z,97634.22
2024-02-04T03:18:41.936Z,97637.00
2024-02-04T03:21:17.872Z,97642.75
2024-02-04T03:23:44.409Z,97634.91
2024-02-04T03:26:11.682Z,97645.25
2024-02-04T03:28:38.386Z,97643.53
2024-02-04T03:31:05.048Z,97643.34
2024-02-04T03:33:31.625Z,97652.03
2024-02-04T03:35:58.189Z,97660.09
2024-02-04T03:38:24.642Z,97642.16
2024-02-04T03:40:51.170Z,97645.84
2024-02-04T03:43:17.603Z,97656.97
2024-02-04T03:45:44.105Z,97650.63
2024-02-04T03:48:10.785Z,97652.03
2024-02-04T03:50:37.473Z,97636.94
2024-02-04T03:53:04.061Z,97640.50
2024-02-04T03:55:30.540Z,97641.22
2024-02-04T03:58:00.275Z,97639.56
2024-02-04T04:00:26.925Z,97630.72
2024-02-04T04:02:53.575Z,97623.97
2024-02-04T04:05:20.192Z,97620.00
2024-02-04T04:07:46.812Z,97621.72
2024-02-04T04:10:13.395Z,97629.44
2024-02-04T04:12:39.958Z,97628.28
2024-02-04T04:15:06.694Z,97628.31
2024-02-04T04:17:33.298Z,97625.06
2024-02-04T04:19:59.809Z,97621.28
2024-02-04T04:22:26.375Z,97620.22
2024-02-04T04:24:52.862Z,97631.50
2024-02-04T04:27:19.412Z,97630.03
2024-02-04T04:29:45.886Z,97632.53
2024-02-04T04:32:12.383Z,97634.47
2024-02-04T04:34:38.923Z,97624.19
2024-02-04T04:37:05.569Z,97618.13
2024-02-04T04:39:32.192Z,97628.94
2024-02-04T04:41:58.676Z,97627.13
2024-02-04T04:44:25.143Z,97620.19
2024-02-04T04:46:51.604Z,97640.19
2024-02-04T04:49:18.165Z,97632.00
2024-02-04T04:51:48.037Z,97632.88
2024-02-04T04:54:14.545Z,97627.06
2024-02-04T04:56:43.197Z,97640.28
2024-02-04T04:59:10.247Z,97630.69
2024-02-04T05:01:36.776Z,97651.97
2024-02-04T05:04:03.515Z,97645.19
2024-02-04T05:06:30.149Z,97640.59
2024-02-04T05:08:56.730Z,97639.84
2024-02-04T05:11:23.154Z,97642.28
2024-02-04T05:13:49.623Z,97641.69
2024-02-04T05:16:16.104Z,97636.06
2024-02-04T05:18:42.702Z,97639.84
2024-02-04T05:21:09.278Z,97624.34
2024-02-04T05:23:37.392Z,97634.84
2024-02-04T05:26:04.712Z,97626.44
2024-02-04T05:28:31.215Z,97621.53
2024-02-04T05:30:57.729Z,97617.84
2024-02-04T05:33:24.250Z,97632.16
2024-02-04T05:35:50.759Z,97628.72
2024-02-04T05:38:17.557Z,97620.47
2024-02-04T05:40:44.058Z,97631.63
2024-02-04T05:43:13.086Z,97626.66
2024-02-04T05:45:42.216Z,97621.59
2024-02-04T05:48:09.397Z,97612.59
2024-02-04T05:50:36.246Z,97615.78
2024-02-04T05:53:03.080Z,97620.09
2024-02-04T05:55:29.924Z,97614.00
2024-02-04T05:57:56.506Z,97605.13
2024-02-04T06:00:23.080Z,97617.75
2024-02-04T06:02:49.585Z,97604.59
2024-02-04T06:05:16.190Z,97611.31
2024-02-04T06:07:45.688Z,97613.03
2024-02-04T06:10:12.782Z,97610.44
2024-02-04T06:12:42.055Z,97599.19
2024-02-04T06:15:15.229Z,97609.66
2024-02-04T06:17:41.996Z,97612.75
2024-02-04T06:20:08.775Z,97615.88
2024-02-04T06:22:35.718Z,97593.53
2024-02-04T06:25:02.779Z,97616.34
2024-02-04T06:27:29.362Z,97614.28
2024-02-04T06:29:55.859Z,97620.16
2024-02-04T06:32:22.367Z,97610.53
2024-02-04T06:34:48.971Z,97600.06
2024-02-04T06:37:15.647Z,97601.50
2024-02-04T06:39:42.217Z,97601.16
2024-02-04T06:42:08.697Z,97591.75
2024-02-04T06:44:35.117Z,97576.94
2024-02-04T06:47:01.605Z,97578.69
2024-02-04T06:49:28.159Z,97566.22
2024-02-04T06:51:57.929Z,97566.63
2024-02-04T06:54:24.855Z,97571.16
2024-02-04T06:56:52.095Z,97572.72
2024-02-04T06:59:18.669Z,97572.75
2024-02-04T07:01:45.242Z,97579.47
2024-02-04T07:04:11.861Z,97582.50
2024-02-04T07:06:38.461Z,97569.69
2024-02-04T07:09:04.955Z,97569.69
2024-02-04T07:11:31.458Z,97570.25
2024-02-04T07:14:01.627Z,97552.50
2024-02-04T07:16:28.157Z,97556.34
2024-02-04T07:18:55.689Z,97564.91
2024-02-04T07:21:22.148Z,97544.63
2024-02-04T07:23:48.592Z,97552.47
2024-02-04T07:26:15.065Z,97554.75
2024-02-04T07:28:41.627Z,97555.50
2024-02-04T07:31:08.395Z,97550.78
2024-02-04T07:33:35.081Z,97536.78
2024-02-04T07:36:01.643Z,97556.31
2024-02-04T07:38:28.110Z,97552.28
2024-02-04T07:40:56.696Z,97562.88
2024-02-04T07:43:23.511Z,97556.34
2024-02-04T07:45:50.068Z,97569.97
2024-02-04T07:48:17.357Z,97569.38
2024-02-04T07:50:44.069Z,97562.88
2024-02-04T07:53:10.554Z,97562.69
2024-02-04T07:55:37.062Z,97569.91
2024-02-04T07:58:03.790Z,97551.94
2024-02-04T08:00:30.451Z,97560.44
2024-02-04T08:02:56.933Z,97556.53
2024-02-04T08:05:23.406Z,97557.78
2024-02-04T08:07:49.945Z,97559.38
2024-02-04T08:10:17.317Z,97552.69
2024-02-04T08:12:44.086Z,97551.31
2024-02-04T08:15:10.603Z,97556.19
2024-02-04T08:17:37.160Z,97553.88
2024-02-04T08:20:05.658Z,97553.03
2024-02-04T08:22:32.212Z,97561.28
2024-02-04T08:24:58.761Z,97548.94
2024-02-04T08:27:25.482Z,97568.63
2024-02-04T08:29:52.024Z,97557.75
2024-02-04T08:32:18.563Z,97561.97
2024-02-04T08:34:45.185Z,97561.94
2024-02-04T08:37:11.945Z,97574.69
2024-02-04T08:39:38.668Z,97560.22
2024-02-04T08:42:05.281Z,97559.97
2024-02-04T08:44:38.809Z,97552.25
2024-02-04T08:47:06.732Z,97559.75
2024-02-04T08:49:33.278Z,97547.44
2024-02-04T08:51:59.982Z,97546.06
2024-02-04T08:54:26.533Z,97542.47
2024-02-04T08:56:53.104Z,97548.69
2024-02-04T08:59:19.554Z,97543.63
2024-02-04T09:01:46.430Z,97541.44
2024-02-04T09:04:13.088Z,97544.91
2024-02-04T09:06:39.874Z,97545.53
2024-02-04T09:09:06.759Z,97543.03
2024-02-04T09:11:33.234Z,97549.31
2024-02-04T09:13:59.799Z,97551.16
2024-02-04T09:16:26.334Z,97551.72
2024-02-04T09:18:53.070Z,97551.97
2024-02-04T09:21:19.789Z,97540.00
2024-02-04T09:23:46.524Z,97548.84
2024-02-04T09:26:15.253Z,97551.38
2024-02-04T09:28:43.514Z,97557.59
2024-02-04T09:31:10.845Z,97562.38
2024-02-04T09:33:39.168Z,97558.06
2024-02-04T09:36:06.055Z,97562.34
2024-02-04T09:38:32.697Z,97555.81
2024-02-04T09:40:59.218Z,97572.44
2024-02-04T09:43:25.955Z,97564.28
2024-02-04T09:45:52.625Z,97565.88
2024-02-04T09:48:20.172Z,97562.28
2024-02-04T09:50:46.920Z,97551.38
2024-02-04T09:53:13.437Z,97556.44
2024-02-04T09:55:40.191Z,97571.44
2024-02-04T09:58:06.888Z,97567.03
2024-02-04T10:00:33.413Z,97561.19
2024-02-04T10:03:00.075Z,97560.84
2024-02-04T10:05:27.018Z,97567.41
2024-02-04T10:07:53.792Z,97569.84
2024-02-04T10:10:20.368Z,97557.28
2024-02-04T10:12:46.928Z,97568.50
2024-02-04T10:15:14.754Z,97560.81
2024-02-04T10:17:48.073Z,97566.09
2024-02-04T10:20:17.253Z,97569.38
2024-02-04T10:22:46.637Z,97580.00
2024-02-04T10:25:13.718Z,97568.47
2024-02-04T10:27:40.254Z,97562.28
2024-02-04T10:30:07.123Z,97575.34
2024-02-04T10:32:33.613Z,97571.97
2024-02-04T10:35:02.081Z,97562.50
2024-02-04T10:37:30.734Z,97573.13
2024-02-04T10:39:57.701Z,97566.06
2024-02-04T10:42:25.734Z,97575.19
2024-02-04T10:44:53.200Z,97551.09
2024-02-04T10:47:22.143Z,97555.56
2024-02-04T10:49:51.086Z,97552.13
2024-02-04T10:52:17.663Z,97553.00
2024-02-04T10:54:44.339Z,97558.47
2024-02-04T10:57:13.072Z,97564.56
2024-02-04T10:59:39.655Z,97553.22
2024-02-04T11:02:09.297Z,97552.16
2024-02-04T11:04:35.878Z,97543.84
2024-02-04T11:07:02.625Z,97555.22
2024-02-04T11:09:29.229Z,97552.13
2024-02-04T11:11:56.749Z,97553.72
2024-02-04T11:14:23.230Z,97558.13
2024-02-04T11:17:04.980Z,97558.03
2024-02-04T11:19:50.418Z,97552.72
2024-02-04T11:22:24.604Z,97537.31
2024-02-04T11:25:00.863Z,97537.72
2024-02-04T11:27:27.469Z,97547.50
2024-02-04T11:29:54.599Z,97535.63
2024-02-04T11:32:21.657Z,97544.50
2024-02-04T11:34:48.501Z,97540.53
2024-02-04T11:37:16.639Z,97531.78
2024-02-04T11:39:53.101Z,97538.34
2024-02-04T11:42:21.009Z,97527.09
2024-02-04T11:44:47.600Z,97528.50
2024-02-04T11:47:23.677Z,97527.16
2024-02-04T11:49:59.888Z,97509.91
2024-02-04T11:52:29.866Z,97516.25
2024-02-04T11:54:56.679Z,97515.28
2024-02-04T11:57:23.819Z,97511.41
2024-02-04T11:59:51.098Z,97509.44
2024-02-04T12:02:17.926Z,97504.22
2024-02-04T12:04:47.601Z,97491.16
2024-02-04T12:07:17.547Z,97491.28
2024-02-04T12:09:44.253Z,97502.41
2024-02-04T12:12:10.733Z,97483.34
2024-02-04T12:14:37.209Z,97478.59
2024-02-04T12:17:12.956Z,97487.06
2024-02-04T12:19:44.019Z,97481.66
2024-02-04T12:22:11.529Z,97492.41
2024-02-04T12:24:38.528Z,97482.09
2024-02-04T12:27:05.522Z,97478.72
2024-02-04T12:29:32.346Z,97493.47
2024-02-04T12:31:59.980Z,97492.28
2024-02-04T12:34:26.582Z,97480.09
2024-02-04T12:37:00.534Z,97468.31
2024-02-04T12:39:27.401Z,97461.66
2024-02-04T12:41:53.959Z,97468.16
2024-02-04T12:44:20.603Z,97468.03
2024-02-04T12:46:47.063Z,97450.97
2024-02-04T12:49:20.253Z,97450.75
2024-02-04T12:51:46.744Z,97473.03
2024-02-04T12:54:14.364Z,97464.22
2024-02-04T12:56:50.857Z,97466.19
2024-02-04T12:59:27.237Z,97455.03
2024-02-04T13:01:55.216Z,97455.66
2024-02-04T13:04:23.746Z,97449.09
2024-02-04T13:06:50.523Z,97450.53
2024-02-04T13:09:17.287Z,97456.47
2024-02-04T13:11:44.189Z,97446.78
2024-02-04T13:14:10.875Z,97440.56
2024-02-04T13:16:38.474Z,97445.00
2024-02-04T13:19:05.568Z,97424.00
2024-02-04T13:21:32.220Z,97418.69
2024-02-04T13:23:58.761Z,97421.50
2024-02-04T13:26:25.235Z,97420.56
2024-02-04T13:28:51.743Z,97420.94
2024-02-04T13:31:18.240Z,97424.44
2024-02-04T13:33:44.828Z,97419.28
2024-02-04T13:36:11.568Z,97434.06
2024-02-04T13:38:38.049Z,97424.63
2024-02-04T13:41:09.132Z,97424.09
2024-02-04T13:43:35.602Z,97423.06
2024-02-04T13:46:03.145Z,97426.06
2024-02-04T13:48:30.136Z,97442.94
2024-02-04T13:50:56.723Z,97436.47
2024-02-04T13:53:23.245Z,97438.16
2024-02-04T13:55:53.285Z,97437.06
2024-02-04T13:58:20.657Z,97437.78
2024-02-04T14:00:47.407Z,97444.09
2024-02-04T14:03:14.580Z,97450.19
2024-02-04T14:05:41.321Z,97453.06
2024-02-04T14:08:08.304Z,97447.50
2024-02-04T14:10:34.782Z,97448.22
2024-02-04T14:13:01.310Z,97440.63
2024-02-04T14:15:27.751Z,97455.84
2024-02-04T14:17:55.485Z,97436.91
2024-02-04T14:20:23.330Z,97438.47
2024-02-04T14:22:50.474Z,97428.78
2024-02-04T14:25:17.019Z,97437.00
2024-02-04T14:27:43.778Z,97443.22
2024-02-04T14:30:10.588Z,97419.47
2024-02-04T14:32:37.130Z,97425.03
2024-02-04T14:35:05.781Z,97406.97
2024-02-04T14:37:33.529Z,97404.66
2024-02-04T14:40:01.336Z,97401.25
2024-02-04T14:42:28.146Z,97415.66
2024-02-04T14:44:54.647Z,97424.53
2024-02-04T14:47:21.661Z,97422.06
2024-02-04T14:49:48.337Z,97412.69
2024-02-04T14:52:15.707Z,97426.25
2024-02-04T14:54:42.302Z,97426.41
2024-02-04T14:57:09.440Z,97424.91
2024-02-04T14:59:38.832Z,97428.38
2024-02-04T15:02:06.011Z,97429.88
2024-02-04T15:04:33.426Z,97431.03
2024-02-04T15:07:00.325Z,97435.66
2024-02-04T15:09:26.826Z,97429.53
2024-02-04T15:11:53.422Z,97427.97
2024-02-04T15:14:20.037Z,97436.84
2024-02-04T15:16:46.703Z,97433.50
2024-02-04T15:19:13.448Z,97440.78
2024-02-04T15:21:40.212Z,97450.06
2024-02-04T15:24:07.514Z,97458.91
2024-02-04T15:26:34.281Z,97463.47
2024-02-04T15:29:02.592Z,97446.47
2024-02-04T15:31:29.502Z,97449.53
2024-02-04T15:33:56.329Z,97445.16
2024-02-04T15:36:22.931Z,97445.66
2024-02-04T15:38:49.426Z,97430.94
2024-02-04T15:41:15.899Z,97444.69
2024-02-04T15:43:42.390Z,97440.03
2024-02-04T15:46:11.403Z,97436.34
2024-02-04T15:48:41.935Z,97418.00
2024-02-04T15:51:08.752Z,97427.50
2024-02-04T15:53:35.393Z,97429.66
2024-02-04T15:56:10.952Z,97430.00
2024-02-04T15:58:38.727Z,97429.97
2024-02-04T16:01:12.277Z,97418.06
2024-02-04T16:03:40.633Z,97413.63
2024-02-04T16:06:08.004Z,97401.28
2024-02-04T16:08:34.629Z,97399.28
2024-02-04T16:11:02.163Z,97413.22
2024-02-04T16:13:28.668Z,97400.06
2024-02-04T16:15:55.234Z,97400.38
2024-02-04T16:18:21.855Z,97404.91
2024-02-04T16:20:48.395Z,97405.38
2024-02-04T16:23:15.141Z,97403.81
2024-02-04T16:25:41.734Z,97398.34
2024-02-04T16:28:08.433Z,97384.47
2024-02-04T16:30:35.040Z,97388.50
2024-02-04T16:33:01.638Z,97399.38
2024-02-04T16:35:28.127Z,97393.22
2024-02-04T16:37:54.691Z,97399.41
2024-02-04T16:40:21.876Z,97403.56
2024-02-04T16:42:48.612Z,97391.13
2024-02-04T16:45:15.111Z,97387.94
2024-02-04T16:47:41.691Z,97387.94
2024-02-04T16:50:09.064Z,97392.44
2024-02-04T16:52:35.803Z,97393.81
2024-02-04T16:55:02.311Z,97384.31
2024-02-04T16:57:29.280Z,97371.16
2024-02-04T16:59:57.785Z,97375.75
2024-02-04T17:02:24.259Z,97360.63
2024-02-04T17:04:52.275Z,97379.13
2024-02-04T17:07:19.352Z,97371.78
2024-02-04T17:09:48.685Z,97379.91
2024-02-04T17:12:15.656Z,97383.72
2024-02-04T17:14:42.218Z,97386.69
2024-02-04T17:17:16.215Z,97396.34
2024-02-04T17:19:49.399Z,97387.13
2024-02-04T17:22:19.329Z,97399.50
2024-02-04T17:24:47.543Z,97403.19
2024-02-04T17:27:15.284Z,97398.88
2024-02-04T17:29:42.926Z,97397.63
2024-02-04T17:32:12.709Z,97399.69
2024-02-04T17:34:39.819Z,97404.41
2024-02-04T17:37:07.211Z,97395.66
2024-02-04T17:39:33.939Z,97377.59
2024-02-04T17:42:00.500Z,97382.31
2024-02-04T17:44:26.959Z,97363.97
2024-02-04T17:46:53.571Z,97379.81
2024-02-04T17:49:20.299Z,97375.06
2024-02-04T17:51:49.908Z,97378.50
2024-02-04T17:54:16.498Z,97381.78
2024-02-04T17:56:42.995Z,97364.94
2024-02-04T17:59:09.483Z,97369.44
2024-02-04T18:01:36.138Z,97378.94
2024-02-04T18:04:05.335Z,97374.69
2024-02-04T18:06:32.225Z,97357.53
2024-02-04T18:08:58.782Z,97348.47
2024-02-04T18:11:26.462Z,97358.41
2024-02-04T18:13:53.616Z,97365.59
2024-02-04T18:16:20.279Z,97356.13
2024-02-04T18:18:46.968Z,97346.22
2024-02-04T18:21:20.230Z,97333.00
2024-02-04T18:23:47.635Z,97337.56
2024-02-04T18:26:23.660Z,97342.63
2024-02-04T18:28:50.428Z,97354.13
2024-02-04T18:31:17.017Z,97353.56
2024-02-04T18:33:43.739Z,97367.66
2024-02-04T18:36:11.232Z,97373.28
2024-02-04T18:38:37.773Z,97362.66
2024-02-04T18:41:06.161Z,97375.81
2024-02-04T18:43:32.660Z,97380.91
2024-02-04T18:45:59.243Z,97383.38
2024-02-04T18:48:25.757Z,97371.59
2024-02-04T18:50:52.218Z,97377.38
2024-02-04T18:53:18.861Z,97371.94
2024-02-04T18:55:45.403Z,97394.75
2024-02-04T18:58:11.982Z,97388.41
2024-02-04T19:00:38.658Z,97380.25
2024-02-04T19:03:05.335Z,97398.00
2024-02-04T19:05:32.088Z,97380.31
2024-02-04T19:07:59.139Z,97382.88
2024-02-04T19:10:25.979Z,97377.66
2024-02-04T19:12:52.588Z,97365.16
2024-02-04T19:15:19.095Z,97373.50
2024-02-04T19:17:45.729Z,97367.47
2024-02-04T19:20:12.792Z,97376.69
2024-02-04T19:22:42.997Z,97379.50
2024-02-04T19:25:14.867Z,97375.09
2024-02-04T19:27:51.639Z,97364.28
2024-02-04T19:30:18.277Z,97370.78
2024-02-04T19:32:47.972Z,97372.03
2024-02-04T19:35:15.855Z,97371.31
2024-02-04T19:37:43.390Z,97365.19
2024-02-04T19:40:10.947Z,97375.03
2024-02-04T19:42:37.895Z,97360.69
2024-02-04T19:45:04.645Z,97374.34
2024-02-04T19:47:31.130Z,97368.88
2024-02-04T19:49:57.839Z,97359.00
2024-02-04T19:52:24.419Z,97361.59
2024-02-04T19:54:51.635Z,97359.28
2024-02-04T19:57:18.161Z,97359.53
2024-02-04T19:59:45.840Z,97340.03
2024-02-04T20:02:12.676Z,97364.19
2024-02-04T20:04:39.260Z,97349.91
2024-02-04T20:07:06.186Z,97354.91
2024-02-04T20:09:33.032Z,97354.53
2024-02-04T20:11:59.720Z,97348.84
2024-02-04T20:14:26.340Z,97344.09
2024-02-04T20:16:52.929Z,97340.97
2024-02-04T20:19:19.493Z,97351.75
2024-02-04T20:21:46.079Z,97336.03
2024-02-04T20:24:12.832Z,97339.28
2024-02-04T20:26:39.396Z,97346.00
2024-02-04T20:29:05.943Z,97354.19
2024-02-04T20:31:32.882Z,97346.03
2024-02-04T20:33:59.424Z,97335.19
2024-02-04T20:36:25.946Z,97333.28
2024-02-04T20:38:52.419Z,97334.59
2024-02-04T20:41:19.269Z,97324.78
2024-02-04T20:43:45.704Z,97332.88
2024-02-04T20:46:12.467Z,97327.84
2024-02-04T20:48:39.152Z,97335.56
2024-02-04T20:51:05.961Z,97326.25
2024-02-04T20:53:32.488Z,97331.88
2024-02-04T20:55:59.005Z,97347.19
2024-02-04T20:58:25.665Z,97346.16
2024-02-04T21:00:52.209Z,97333.50
2024-02-04T21:03:19.481Z,97359.50
2024-02-04T21:05:45.988Z,97344.78
2024-02-04T21:08:12.581Z,97359.03
2024-02-04T21:10:39.234Z,97347.69
2024-02-04T21:13:06.360Z,97348.88
2024-02-04T21:15:35.963Z,97340.03
2024-02-04T21:18:03.362Z,97351.56
2024-02-04T21:20:30.070Z,97353.38
2024-02-04T21:22:56.810Z,97346.19
2024-02-04T21:25:23.271Z,97332.53
2024-02-04T21:27:50.353Z,97313.72
2024-02-04T21:30:16.973Z,97320.09
2024-02-04T21:32:46.107Z,97324.75
2024-02-04T21:35:12.820Z,97310.78
2024-02-04T21:37:39.639Z,97338.41
2024-02-04T21:40:08.120Z,97331.91
2024-02-04T21:42:35.531Z,97344.75
2024-02-04T21:45:02.089Z,97335.44
2024-02-04T21:47:28.654Z,97327.94
2024-02-04T21:49:56.088Z,97321.16
2024-02-04T21:52:22.696Z,97328.69
2024-02-04T21:54:49.312Z,97336.53
2024-02-04T21:57:16.432Z,97330.16
2024-02-04T21:59:42.939Z,97342.84
2024-02-04T22:02:09.836Z,97349.09
2024-02-04T22:04:36.512Z,97344.81
2024-02-04T22:07:03.364Z,97347.56
2024-02-04T22:09:29.921Z,97356.38
2024-02-04T22:11:56.351Z,97335.50
2024-02-04T22:14:22.897Z,97332.78
2024-02-04T22:16:49.335Z,97344.41
2024-02-04T22:19:15.918Z,97330.03
2024-02-04T22:21:43.612Z,97334.22
2024-02-04T22:24:10.631Z,97348.94
2024-02-04T22:26:37.085Z,97347.81
2024-02-04T22:29:03.572Z,97340.63
2024-02-04T22:31:30.266Z,97338.94
2024-02-04T22:33:57.428Z,97335.28
2024-02-04T22:36:28.860Z,97338.66
2024-02-04T22:38:56.159Z,97358.97
2024-02-04T22:41:23.141Z,97353.41
2024-02-04T22:43:49.846Z,97347.56
2024-02-04T22:46:16.488Z,97347.91
2024-02-04T22:48:43.066Z,97348.72
2024-02-04T22:51:09.604Z,97352.44
2024-02-04T22:53:36.079Z,97350.94
2024-02-04T22:56:04.717Z,97342.88
2024-02-04T22:58:33.043Z,97343.78
2024-02-04T23:00:59.702Z,97342.28
2024-02-04T23:03:26.318Z,97340.19
2024-02-04T23:05:52.773Z,97333.16
2024-02-04T23:08:19.320Z,97338.16
2024-02-04T23:10:46.074Z,97344.59
2024-02-04T23:13:13.929Z,97342.06
2024-02-04T23:15:40.812Z,97343.31
2024-02-04T23:18:07.752Z,97347.81
2024-02-04T23:20:35.253Z,97355.69
2024-02-04T23:23:01.854Z,97346.06
2024-02-04T23:25:28.567Z,97329.75
2024-02-04T23:27:55.188Z,97357.28
2024-02-04T23:30:21.703Z,97349.91
2024-02-04T23:32:48.997Z,97340.78
2024-02-04T23:35:16.171Z,97352.69
2024-02-04T23:37:42.691Z,97348.88
2024-02-04T23:40:09.569Z,97365.25
2024-02-04T23:42:36.127Z,97354.34
2024-02-04T23:45:02.637Z,97353.38
2024-02-04T23:47:29.174Z,97358.72
2024-02-04T23:49:56.111Z,97345.47
2024-02-04T23:52:23.349Z,97345.94
2024-02-04T23:54:49.901Z,97360.78
2024-02-04T23:57:17.196Z,97337.66
2024-02-04T23:59:43.647Z,97342.06
